sensor_id;sensor_type;location;lat;lon;timestamp;temperature;humidity
49711;DHT22;35602;44.534;18.696;2022-10-03T00:09:31;21.90;63.40
49711;DHT22;35602;44.534;18.696;2022-10-03T00:21:58;21.90;63.40
49711;DHT22;35602;44.534;18.696;2022-10-03T00:27:18;21.90;63.40
49711;DHT22;35602;44.534;18.696;2022-10-03T00:34:13;21.90;63.40
49711;DHT22;35602;44.534;18.696;2022-10-03T00:40:27;21.90;63.40
49711;DHT22;35602;44.534;18.696;2022-10-03T00:59:04;21.90;63.40
49711;DHT22;35602;44.534;18.696;2022-10-03T01:18:34;21.90;63.30
49711;DHT22;35602;44.534;18.696;2022-10-03T01:26:51;21.90;63.40
49711;DHT22;35602;44.534;18.696;2022-10-03T01:42:02;21.90;63.30
49711;DHT22;35602;44.534;18.696;2022-10-03T01:48:37;21.90;63.40
49711;DHT22;35602;44.534;18.696;2022-10-03T01:53:49;21.90;63.30
49711;DHT22;35602;44.534;18.696;2022-10-03T01:59:18;21.90;63.40
49711;DHT22;35602;44.534;18.696;2022-10-03T02:19:44;21.90;63.30
49711;DHT22;35602;44.534;18.696;2022-10-03T02:25:59;21.90;63.30
49711;DHT22;35602;44.534;18.696;2022-10-03T02:32:01;21.90;63.40
49711;DHT22;35602;44.534;18.696;2022-10-03T02:39:52;21.90;63.30
49711;DHT22;35602;44.534;18.696;2022-10-03T03:26:25;21.90;63.40
49711;DHT22;35602;44.534;18.696;2022-10-03T03:41:55;21.90;63.40
49711;DHT22;35602;44.534;18.696;2022-10-03T03:48:41;21.90;63.50
49711;DHT22;35602;44.534;18.696;2022-10-03T03:54:11;21.90;63.40
49711;DHT22;35602;44.534;18.696;2022-10-03T03:59:56;21.90;63.50
49711;DHT22;35602;44.534;18.696;2022-10-03T04:05:40;21.90;63.40
49711;DHT22;35602;44.534;18.696;2022-10-03T04:24:29;21.90;63.40
49711;DHT22;35602;44.534;18.696;2022-10-03T04:32:57;21.90;63.40
49711;DHT22;35602;44.534;18.696;2022-10-03T04:38:38;21.90;63.40
49711;DHT22;35602;44.534;18.696;2022-10-03T04:56:21;21.90;63.30
49711;DHT22;35602;44.534;18.696;2022-10-03T05:01:53;21.80;63.30
49711;DHT22;35602;44.534;18.696;2022-10-03T05:07:21;21.90;63.30
49711;DHT22;35602;44.534;18.696;2022-10-03T05:12:38;21.90;63.30
49711;DHT22;35602;44.534;18.696;2022-10-03T05:23:23;21.90;63.30
49711;DHT22;35602;44.534;18.696;2022-10-03T05:45:47;21.90;63.30
49711;DHT22;35602;44.534;18.696;2022-10-03T06:12:19;21.90;63.30
49711;DHT22;35602;44.534;18.696;2022-10-03T06:18:15;21.80;63.20
49711;DHT22;35602;44.534;18.696;2022-10-03T06:24:08;21.80;63.20
49711;DHT22;35602;44.534;18.696;2022-10-03T06:30:40;21.90;63.20
49711;DHT22;35602;44.534;18.696;2022-10-03T06:36:25;21.80;62.00
49711;DHT22;35602;44.534;18.696;2022-10-03T06:42:07;21.90;62.30
49711;DHT22;35602;44.534;18.696;2022-10-03T06:50:51;21.90;62.20
49711;DHT22;35602;44.534;18.696;2022-10-03T07:08:03;21.90;61.50
49711;DHT22;35602;44.534;18.696;2022-10-03T07:23:09;21.90;61.30
49711;DHT22;35602;44.534;18.696;2022-10-03T07:53:19;21.80;59.50
49711;DHT22;35602;44.534;18.696;2022-10-03T07:58:52;21.80;59.60
49711;DHT22;35602;44.534;18.696;2022-10-03T08:04:43;21.90;60.20
49711;DHT22;35602;44.534;18.696;2022-10-03T08:52:36;22.40;61.60
49711;DHT22;35602;44.534;18.696;2022-10-03T08:58:24;22.40;61.30
49711;DHT22;35602;44.534;18.696;2022-10-03T09:15:17;22.40;61.00
49711;DHT22;35602;44.534;18.696;2022-10-03T09:40:29;22.30;56.00
49711;DHT22;35602;44.534;18.696;2022-10-03T09:52:40;22.30;55.40
49711;DHT22;35602;44.534;18.696;2022-10-03T09:58:10;22.30;54.60
49711;DHT22;35602;44.534;18.696;2022-10-03T10:20:29;22.30;52.60
49711;DHT22;35602;44.534;18.696;2022-10-03T10:26:11;22.30;51.70
49711;DHT22;35602;44.534;18.696;2022-10-03T10:47:43;22.20;51.80
49711;DHT22;35602;44.534;18.696;2022-10-03T11:08:56;22.30;51.50
49711;DHT22;35602;44.534;18.696;2022-10-03T11:16:15;22.30;52.10
49711;DHT22;35602;44.534;18.696;2022-10-03T11:40:34;22.30;52.90
49711;DHT22;35602;44.534;18.696;2022-10-03T11:45:53;22.30;53.00
49711;DHT22;35602;44.534;18.696;2022-10-03T11:51:14;22.30;52.90
49711;DHT22;35602;44.534;18.696;2022-10-03T11:56:38;22.30;51.60
49711;DHT22;35602;44.534;18.696;2022-10-03T12:08:33;22.30;51.60
49711;DHT22;35602;44.534;18.696;2022-10-03T12:15:51;22.30;50.00
49711;DHT22;35602;44.534;18.696;2022-10-03T12:21:11;22.20;49.60
49711;DHT22;35602;44.534;18.696;2022-10-03T12:26:17;22.20;49.30
49711;DHT22;35602;44.534;18.696;2022-10-03T12:31:32;22.20;48.80
49711;DHT22;35602;44.534;18.696;2022-10-03T12:38:23;22.20;49.30
49711;DHT22;35602;44.534;18.696;2022-10-03T12:52:20;22.20;48.70
49711;DHT22;35602;44.534;18.696;2022-10-03T12:57:56;22.10;49.10
49711;DHT22;35602;44.534;18.696;2022-10-03T13:03:16;22.20;49.10
49711;DHT22;35602;44.534;18.696;2022-10-03T13:09:21;22.20;49.00
49711;DHT22;35602;44.534;18.696;2022-10-03T13:20:29;22.20;49.40
49711;DHT22;35602;44.534;18.696;2022-10-03T13:25:55;22.20;50.00
49711;DHT22;35602;44.534;18.696;2022-10-03T13:31:09;22.30;50.50
49711;DHT22;35602;44.534;18.696;2022-10-03T13:42:47;22.30;50.10
49711;DHT22;35602;44.534;18.696;2022-10-03T13:48:37;22.20;51.80
49711;DHT22;35602;44.534;18.696;2022-10-03T13:53:58;22.20;50.20
49711;DHT22;35602;44.534;18.696;2022-10-03T13:59:34;22.30;50.40
49711;DHT22;35602;44.534;18.696;2022-10-03T14:04:53;22.30;50.30
49711;DHT22;35602;44.534;18.696;2022-10-03T14:10:34;22.30;50.40
49711;DHT22;35602;44.534;18.696;2022-10-03T14:36:23;22.30;50.60
49711;DHT22;35602;44.534;18.696;2022-10-03T14:51:57;22.20;51.20
49711;DHT22;35602;44.534;18.696;2022-10-03T14:57:02;22.20;51.60
49711;DHT22;35602;44.534;18.696;2022-10-03T15:02:32;22.20;51.90
49711;DHT22;35602;44.534;18.696;2022-10-03T15:07:43;22.20;52.00
49711;DHT22;35602;44.534;18.696;2022-10-03T15:12:50;22.10;52.20
49711;DHT22;35602;44.534;18.696;2022-10-03T15:17:56;22.10;52.30
49711;DHT22;35602;44.534;18.696;2022-10-03T15:23:01;22.10;52.50
49711;DHT22;35602;44.534;18.696;2022-10-03T15:28:05;22.10;53.10
49711;DHT22;35602;44.534;18.696;2022-10-03T15:41:26;22.10;53.00
49711;DHT22;35602;44.534;18.696;2022-10-03T15:46:44;22.10;53.10
49711;DHT22;35602;44.534;18.696;2022-10-03T15:51:48;22.00;53.20
49711;DHT22;35602;44.534;18.696;2022-10-03T15:56:57;22.00;53.40
49711;DHT22;35602;44.534;18.696;2022-10-03T16:02:15;22.00;53.50
49711;DHT22;35602;44.534;18.696;2022-10-03T16:13:52;22.00;53.70
49711;DHT22;35602;44.534;18.696;2022-10-03T16:20:02;22.00;53.80
49711;DHT22;35602;44.534;18.696;2022-10-03T16:25:17;22.00;54.00
49711;DHT22;35602;44.534;18.696;2022-10-03T16:30:25;22.00;54.10
49711;DHT22;35602;44.534;18.696;2022-10-03T16:35:36;22.00;54.80
49711;DHT22;35602;44.534;18.696;2022-10-03T16:40:38;22.00;54.30
49711;DHT22;35602;44.534;18.696;2022-10-03T16:45:42;22.00;54.30
49711;DHT22;35602;44.534;18.696;2022-10-03T16:50:48;22.00;54.40
49711;DHT22;35602;44.534;18.696;2022-10-03T16:55:55;22.00;55.10
49711;DHT22;35602;44.534;18.696;2022-10-03T17:01:21;22.00;54.60
49711;DHT22;35602;44.534;18.696;2022-10-03T17:06:30;22.00;54.70
49711;DHT22;35602;44.534;18.696;2022-10-03T17:11:34;22.00;54.80
49711;DHT22;35602;44.534;18.696;2022-10-03T17:16:45;22.00;54.90
49711;DHT22;35602;44.534;18.696;2022-10-03T17:21:56;22.00;54.90
49711;DHT22;35602;44.534;18.696;2022-10-03T17:27:00;22.00;55.00
49711;DHT22;35602;44.534;18.696;2022-10-03T17:32:18;22.00;55.10
49711;DHT22;35602;44.534;18.696;2022-10-03T17:38:24;22.00;55.20
49711;DHT22;35602;44.534;18.696;2022-10-03T17:43:56;22.00;55.30
49711;DHT22;35602;44.534;18.696;2022-10-03T17:49:57;22.00;55.40
49711;DHT22;35602;44.534;18.696;2022-10-03T17:55:02;22.00;55.40
49711;DHT22;35602;44.534;18.696;2022-10-03T18:00:06;22.00;55.50
49711;DHT22;35602;44.534;18.696;2022-10-03T18:05:20;22.00;55.50
49711;DHT22;35602;44.534;18.696;2022-10-03T18:10:31;22.00;55.60
49711;DHT22;35602;44.534;18.696;2022-10-03T18:26:00;22.00;55.80
49711;DHT22;35602;44.534;18.696;2022-10-03T18:31:11;22.00;55.90
49711;DHT22;35602;44.534;18.696;2022-10-03T18:36:22;22.00;56.00
49711;DHT22;35602;44.534;18.696;2022-10-03T18:41:25;22.00;56.10
49711;DHT22;35602;44.534;18.696;2022-10-03T18:46:38;22.00;56.10
49711;DHT22;35602;44.534;18.696;2022-10-03T18:52:35;22.00;56.20
49711;DHT22;35602;44.534;18.696;2022-10-03T18:58:29;22.00;56.20
49711;DHT22;35602;44.534;18.696;2022-10-03T19:12:17;21.90;56.40
49711;DHT22;35602;44.534;18.696;2022-10-03T19:17:40;22.00;56.50
49711;DHT22;35602;44.534;18.696;2022-10-03T19:23:16;21.90;56.50
49711;DHT22;35602;44.534;18.696;2022-10-03T19:33:51;22.00;56.60
49711;DHT22;35602;44.534;18.696;2022-10-03T19:38:57;21.90;56.60
49711;DHT22;35602;44.534;18.696;2022-10-03T19:44:13;22.00;56.70
49711;DHT22;35602;44.534;18.696;2022-10-03T19:51:52;22.00;56.70
49711;DHT22;35602;44.534;18.696;2022-10-03T19:57:25;21.90;56.70
49711;DHT22;35602;44.534;18.696;2022-10-03T20:02:28;21.90;56.70
49711;DHT22;35602;44.534;18.696;2022-10-03T20:07:43;21.90;56.80
49711;DHT22;35602;44.534;18.696;2022-10-03T20:12:49;21.90;56.80
49711;DHT22;35602;44.534;18.696;2022-10-03T20:17:59;21.90;56.80
49711;DHT22;35602;44.534;18.696;2022-10-03T20:23:05;21.90;56.90
49711;DHT22;35602;44.534;18.696;2022-10-03T20:28:22;21.90;56.90
49711;DHT22;35602;44.534;18.696;2022-10-03T20:33:31;21.90;56.90
49711;DHT22;35602;44.534;18.696;2022-10-03T20:52:04;21.90;57.00
49711;DHT22;35602;44.534;18.696;2022-10-03T20:57:27;21.90;57.00
49711;DHT22;35602;44.534;18.696;2022-10-03T21:03:25;21.90;57.10
49711;DHT22;35602;44.534;18.696;2022-10-03T21:08:37;21.90;57.00
49711;DHT22;35602;44.534;18.696;2022-10-03T21:13:53;21.90;57.10
49711;DHT22;35602;44.534;18.696;2022-10-03T21:18:58;21.90;57.10
49711;DHT22;35602;44.534;18.696;2022-10-03T21:29:31;21.90;57.10
49711;DHT22;35602;44.534;18.696;2022-10-03T21:36:06;21.90;57.20
49711;DHT22;35602;44.534;18.696;2022-10-03T21:42:38;21.80;57.10
49711;DHT22;35602;44.534;18.696;2022-10-03T21:47:48;21.80;57.10
49711;DHT22;35602;44.534;18.696;2022-10-03T21:56:22;21.90;57.20
49711;DHT22;35602;44.534;18.696;2022-10-03T22:01:41;21.90;57.30
49711;DHT22;35602;44.534;18.696;2022-10-03T22:07:35;21.90;57.30
49711;DHT22;35602;44.534;18.696;2022-10-03T22:12:46;21.90;57.30
49711;DHT22;35602;44.534;18.696;2022-10-03T22:17:58;21.90;57.30
49711;DHT22;35602;44.534;18.696;2022-10-03T22:23:27;21.90;57.30
49711;DHT22;35602;44.534;18.696;2022-10-03T22:30:23;21.90;57.40
49711;DHT22;35602;44.534;18.696;2022-10-03T22:35:47;21.80;57.40
49711;DHT22;35602;44.534;18.696;2022-10-03T22:40:49;21.80;57.40
49711;DHT22;35602;44.534;18.696;2022-10-03T22:45:52;21.90;57.50
49711;DHT22;35602;44.534;18.696;2022-10-03T22:50:55;21.80;57.40
49711;DHT22;35602;44.534;18.696;2022-10-03T22:55:57;21.80;57.40
49711;DHT22;35602;44.534;18.696;2022-10-03T23:01:00;21.80;57.40
49711;DHT22;35602;44.534;18.696;2022-10-03T23:06:26;21.80;57.50
49711;DHT22;35602;44.534;18.696;2022-10-03T23:11:34;21.80;57.50
49711;DHT22;35602;44.534;18.696;2022-10-03T23:19:13;21.80;57.40
49711;DHT22;35602;44.534;18.696;2022-10-03T23:24:33;21.80;57.50
49711;DHT22;35602;44.534;18.696;2022-10-03T23:29:38;21.80;57.50
49711;DHT22;35602;44.534;18.696;2022-10-03T23:34:44;21.80;57.50
49711;DHT22;35602;44.534;18.696;2022-10-03T23:40:46;21.80;57.60
49711;DHT22;35602;44.534;18.696;2022-10-03T23:45:49;21.80;57.50
49711;DHT22;35602;44.534;18.696;2022-10-03T23:51:10;21.80;57.60
49711;DHT22;35602;44.534;18.696;2022-10-03T23:56:36;21.80;57.50
